sensor_id;sensor_type;location;lat;lon;timestamp;pressure;altitude;pressure_sealevel;temperature;humidity
14343;BME280;7255;53.596;9.960;2023-11-19T00:00:24;100583.72;;;5.92;nan
14343;BME280;7255;53.596;9.960;2023-11-19T00:02:51;100580.88;;;6.00;nan
14343;BME280;7255;53.596;9.960;2023-11-19T00:05:17;100575.56;;;6.00;nan
14343;BME280;7255;53.596;9.960;2023-11-19T00:07:44;100579.28;;;6.06;nan
14343;BME280;7255;53.596;9.960;2023-11-19T00:10:12;100567.78;;;6.05;nan
14343;BME280;7255;53.596;9.960;2023-11-19T00:12:41;100561.66;;;6.11;nan
14343;BME280;7255;53.596;9.960;2023-11-19T00:15:09;100548.94;;;6.13;nan
14343;BME280;7255;53.596;9.960;2023-11-19T00:17:36;100535.75;;;5.98;nan
14343;BME280;7255;53.596;9.960;2023-11-19T00:20:03;100524.31;;;6.05;nan
14343;BME280;7255;53.596;9.960;2023-11-19T00:22:31;100519.41;;;6.08;nan
14343;BME280;7255;53.596;9.960;2023-11-19T00:24:57;100534.47;;;5.94;nan
14343;BME280;7255;53.596;9.960;2023-11-19T00:27:24;100517.22;;;5.90;nan
14343;BME280;7255;53.596;9.960;2023-11-19T00:29:52;100509.50;;;6.02;nan
14343;BME280;7255;53.596;9.960;2023-11-19T00:32:18;100503.34;;;6.02;nan
14343;BME280;7255;53.596;9.960;2023-11-19T00:34:45;100492.28;;;6.05;nan
14343;BME280;7255;53.596;9.960;2023-11-19T00:37:12;100481.59;;;5.98;nan
14343;BME280;7255;53.596;9.960;2023-11-19T00:39:40;100475.06;;;6.07;nan
14343;BME280;7255;53.596;9.960;2023-11-19T00:42:06;100466.47;;;6.12;nan
14343;BME280;7255;53.596;9.960;2023-11-19T00:44:33;100457.81;;;6.10;nan
14343;BME280;7255;53.596;9.960;2023-11-19T00:47:01;100449.94;;;5.95;nan
14343;BME280;7255;53.596;9.960;2023-11-19T00:49:27;100448.38;;;6.07;nan
14343;BME280;7255;53.596;9.960;2023-11-19T00:51:53;100444.72;;;6.08;nan
14343;BME280;7255;53.596;9.960;2023-11-19T00:54:20;100437.28;;;6.04;nan
14343;BME280;7255;53.596;9.960;2023-11-19T00:56:46;100439.75;;;6.05;nan
14343;BME280;7255;53.596;9.960;2023-11-19T00:59:12;100446.34;;;6.16;nan
14343;BME280;7255;53.596;9.960;2023-11-19T01:01:39;100437.72;;;6.07;nan
14343;BME280;7255;53.596;9.960;2023-11-19T01:04:06;100420.09;;;6.06;nan
14343;BME280;7255;53.596;9.960;2023-11-19T01:06:33;100411.47;;;6.11;nan
14343;BME280;7255;53.596;9.960;2023-11-19T01:09:00;100404.88;;;6.00;nan
14343;BME280;7255;53.596;9.960;2023-11-19T01:11:26;100387.66;;;6.09;nan
14343;BME280;7255;53.596;9.960;2023-11-19T01:13:53;100388.88;;;6.00;nan
14343;BME280;7255;53.596;9.960;2023-11-19T01:16:20;100395.84;;;6.01;nan
14343;BME280;7255;53.596;9.960;2023-11-19T01:18:47;100372.87;;;6.07;nan
14343;BME280;7255;53.596;9.960;2023-11-19T01:21:15;100362.63;;;6.10;nan
14343;BME280;7255;53.596;9.960;2023-11-19T01:23:42;100369.59;;;6.11;nan
14343;BME280;7255;53.596;9.960;2023-11-19T01:26:09;100350.75;;;6.06;nan
14343;BME280;7255;53.596;9.960;2023-11-19T01:28:36;100352.75;;;6.04;nan
14343;BME280;7255;53.596;9.960;2023-11-19T01:31:04;100339.25;;;6.12;nan
14343;BME280;7255;53.596;9.960;2023-11-19T01:33:31;100335.94;;;6.17;nan
14343;BME280;7255;53.596;9.960;2023-11-19T01:35:57;100332.25;;;6.18;nan
14343;BME280;7255;53.596;9.960;2023-11-19T01:38:25;100325.69;;;6.21;nan
14343;BME280;7255;53.596;9.960;2023-11-19T01:40:55;100323.22;;;6.26;nan
14343;BME280;7255;53.596;9.960;2023-11-19T01:43:31;100313.78;;;6.16;nan
14343;BME280;7255;53.596;9.960;2023-11-19T01:45:58;100304.34;;;6.21;nan
14343;BME280;7255;53.596;9.960;2023-11-19T01:48:24;100305.59;;;6.25;nan
14343;BME280;7255;53.596;9.960;2023-11-19T01:50:51;100307.22;;;6.26;nan
14343;BME280;7255;53.596;9.960;2023-11-19T01:53:19;100312.16;;;6.29;nan
14343;BME280;7255;53.596;9.960;2023-11-19T01:55:47;100307.22;;;6.26;nan
14343;BME280;7255;53.596;9.960;2023-11-19T01:58:14;100288.75;;;6.31;nan
14343;BME280;7255;53.596;9.960;2023-11-19T02:00:41;100276.00;;;6.26;nan
14343;BME280;7255;53.596;9.960;2023-11-19T02:03:08;100279.72;;;6.25;nan
14343;BME280;7255;53.596;9.960;2023-11-19T02:05:35;100286.69;;;6.33;nan
14343;BME280;7255;53.596;9.960;2023-11-19T02:08:01;100258.78;;;6.29;nan
14343;BME280;7255;53.596;9.960;2023-11-19T02:10:28;100235.78;;;6.34;nan
14343;BME280;7255;53.596;9.960;2023-11-19T02:12:56;100255.88;;;6.37;nan
14343;BME280;7255;53.596;9.960;2023-11-19T02:15:22;100257.53;;;6.31;nan
14343;BME280;7255;53.596;9.960;2023-11-19T02:17:49;100255.47;;;6.40;nan
14343;BME280;7255;53.596;9.960;2023-11-19T02:20:38;100259.16;;;6.39;nan
14343;BME280;7255;53.596;9.960;2023-11-19T02:23:05;100239.06;;;6.36;nan
14343;BME280;7255;53.596;9.960;2023-11-19T02:25:32;100215.25;;;6.35;nan
14343;BME280;7255;53.596;9.960;2023-11-19T02:28:02;100220.19;;;6.38;nan
14343;BME280;7255;53.596;9.960;2023-11-19T02:30:28;100212.78;;;6.47;nan
14343;BME280;7255;53.596;9.960;2023-11-19T02:32:55;100223.84;;;6.44;nan
14343;BME280;7255;53.596;9.960;2023-11-19T02:35:22;100215.22;;;6.48;nan
14343;BME280;7255;53.596;9.960;2023-11-19T02:37:48;100205.78;;;6.52;nan
14343;BME280;7255;53.596;9.960;2023-11-19T02:40:15;100205.78;;;6.52;nan
14343;BME280;7255;53.596;9.960;2023-11-19T02:42:42;100194.28;;;6.45;nan
14343;BME280;7255;53.596;9.960;2023-11-19T02:45:10;100190.97;;;6.50;nan
14343;BME280;7255;53.596;9.960;2023-11-19T02:47:39;100181.97;;;6.51;nan
14343;BME280;7255;53.596;9.960;2023-11-19T02:50:06;100183.19;;;6.48;nan
14343;BME280;7255;53.596;9.960;2023-11-19T02:52:39;100170.81;;;6.61;nan
14343;BME280;7255;53.596;9.960;2023-11-19T02:55:05;100162.22;;;6.52;nan
14343;BME280;7255;53.596;9.960;2023-11-19T02:57:34;100160.97;;;6.61;nan
14343;BME280;7255;53.596;9.960;2023-11-19T03:00:01;100153.13;;;6.66;nan
14343;BME280;7255;53.596;9.960;2023-11-19T03:02:41;100141.19;;;6.75;nan
14343;BME280;7255;53.596;9.960;2023-11-19T03:05:12;100139.16;;;6.71;nan
14343;BME280;7255;53.596;9.960;2023-11-19T03:07:40;100135.50;;;6.65;nan
14343;BME280;7255;53.596;9.960;2023-11-19T03:10:08;100134.59;;;6.78;nan
14343;BME280;7255;53.596;9.960;2023-11-19T03:12:37;100136.22;;;6.79;nan
14343;BME280;7255;53.596;9.960;2023-11-19T03:15:04;100142.34;;;6.86;nan
14343;BME280;7255;53.596;9.960;2023-11-19T03:17:31;100116.50;;;6.87;nan
14343;BME280;7255;53.596;9.960;2023-11-19T03:19:58;100112.75;;;6.94;nan
14343;BME280;7255;53.596;9.960;2023-11-19T03:22:24;100104.13;;;6.92;nan
14343;BME280;7255;53.596;9.960;2023-11-19T03:24:51;100094.25;;;6.93;nan
14343;BME280;7255;53.596;9.960;2023-11-19T03:27:17;100077.41;;;6.92;nan
14343;BME280;7255;53.596;9.960;2023-11-19T03:29:43;100083.16;;;6.96;nan
14343;BME280;7255;53.596;9.960;2023-11-19T03:32:10;100091.69;;;7.05;nan
14343;BME280;7255;53.596;9.960;2023-11-19T03:34:37;100073.66;;;7.00;nan
14343;BME280;7255;53.596;9.960;2023-11-19T03:37:05;100085.53;;;7.04;nan
14343;BME280;7255;53.596;9.960;2023-11-19T03:39:31;100064.97;;;7.05;nan
14343;BME280;7255;53.596;9.960;2023-11-19T03:41:58;100076.88;;;7.09;nan
14343;BME280;7255;53.596;9.960;2023-11-19T03:44:25;100069.47;;;7.11;nan
14343;BME280;7255;53.596;9.960;2023-11-19T03:46:52;100068.22;;;7.13;nan
14343;BME280;7255;53.596;9.960;2023-11-19T03:49:18;100066.94;;;7.16;nan
14343;BME280;7255;53.596;9.960;2023-11-19T03:51:44;100065.31;;;7.15;nan
14343;BME280;7255;53.596;9.960;2023-11-19T03:54:12;100065.28;;;7.22;nan
14343;BME280;7255;53.596;9.960;2023-11-19T03:56:38;100058.66;;;7.24;nan
14343;BME280;7255;53.596;9.960;2023-11-19T03:59:05;100055.28;;;7.36;nan
14343;BME280;7255;53.596;9.960;2023-11-19T04:01:31;100052.38;;;7.37;nan
14343;BME280;7255;53.596;9.960;2023-11-19T04:03:57;100055.69;;;7.32;nan
14343;BME280;7255;53.596;9.960;2023-11-19T04:06:24;100055.28;;;7.36;nan
14343;BME280;7255;53.596;9.960;2023-11-19T04:08:50;100052.75;;;7.41;nan
14343;BME280;7255;53.596;9.960;2023-11-19T04:11:18;100051.88;;;7.47;nan
14343;BME280;7255;53.596;9.960;2023-11-19T04:13:44;100041.66;;;7.44;nan
14343;BME280;7255;53.596;9.960;2023-11-19T04:16:10;100046.09;;;7.50;nan
14343;BME280;7255;53.596;9.960;2023-11-19T04:18:37;100037.06;;;7.51;nan
14343;BME280;7255;53.596;9.960;2023-11-19T04:21:06;100032.94;;;7.48;nan
14343;BME280;7255;53.596;9.960;2023-11-19T04:23:33;100039.00;;;7.62;nan
14343;BME280;7255;53.596;9.960;2023-11-19T04:26:01;100031.56;;;7.64;nan
14343;BME280;7255;53.596;9.960;2023-11-19T04:28:30;100032.38;;;7.65;nan
14343;BME280;7255;53.596;9.960;2023-11-19T04:30:56;100025.41;;;7.64;nan
14343;BME280;7255;53.596;9.960;2023-11-19T04:33:23;100027.84;;;7.65;nan
14343;BME280;7255;53.596;9.960;2023-11-19T04:35:50;100027.03;;;7.65;nan
14343;BME280;7255;53.596;9.960;2023-11-19T04:38:16;100025.78;;;7.67;nan
14343;BME280;7255;53.596;9.960;2023-11-19T04:40:42;100022.41;;;7.72;nan
14343;BME280;7255;53.596;9.960;2023-11-19T04:43:09;100004.66;;;7.78;nan
14343;BME280;7255;53.596;9.960;2023-11-19T04:45:36;100005.56;;;7.71;nan
14343;BME280;7255;53.596;9.960;2023-11-19T04:48:04;100019.09;;;7.77;nan
14343;BME280;7255;53.596;9.960;2023-11-19T04:50:30;100058.53;;;7.81;nan
14343;BME280;7255;53.596;9.960;2023-11-19T04:52:56;100014.03;;;7.87;nan
14343;BME280;7255;53.596;9.960;2023-11-19T04:55:23;100020.19;;;7.87;nan
14343;BME280;7255;53.596;9.960;2023-11-19T04:57:49;100013.94;;;7.94;nan
14343;BME280;7255;53.596;9.960;2023-11-19T05:00:15;100010.59;;;7.98;nan
14343;BME280;7255;53.596;9.960;2023-11-19T05:02:43;100003.50;;;8.04;nan
14343;BME280;7255;53.596;9.960;2023-11-19T05:05:09;100007.63;;;8.06;nan
14343;BME280;7255;53.596;9.960;2023-11-19T05:07:36;100007.06;;;8.16;nan
14343;BME280;7255;53.596;9.960;2023-11-19T05:10:03;100010.34;;;8.18;nan
14343;BME280;7255;53.596;9.960;2023-11-19T05:12:31;100007.34;;;8.26;nan
14343;BME280;7255;53.596;9.960;2023-11-19T05:14:57;100005.63;;;8.32;nan
14343;BME280;7255;53.596;9.960;2023-11-19T05:17:24;100005.19;;;8.35;nan
14343;BME280;7255;53.596;9.960;2023-11-19T05:19:50;99993.13;;;8.44;nan
14343;BME280;7255;53.596;9.960;2023-11-19T05:22:17;99995.94;;;8.50;nan
14343;BME280;7255;53.596;9.960;2023-11-19T05:24:43;99988.38;;;8.58;nan
14343;BME280;7255;53.596;9.960;2023-11-19T05:27:10;99989.56;;;8.62;nan
14343;BME280;7255;53.596;9.960;2023-11-19T05:29:38;99984.09;;;8.69;nan
14343;BME280;7255;53.596;9.960;2023-11-19T05:32:06;99978.31;;;8.72;nan
14343;BME280;7255;53.596;9.960;2023-11-19T05:34:32;99971.19;;;8.78;nan
14343;BME280;7255;53.596;9.960;2023-11-19T05:37:00;99982.12;;;8.88;nan
14343;BME280;7255;53.596;9.960;2023-11-19T05:39:27;99983.69;;;8.96;nan
14343;BME280;7255;53.596;9.960;2023-11-19T05:41:53;99986.81;;;9.04;nan
14343;BME280;7255;53.596;9.960;2023-11-19T05:44:20;99979.25;;;9.13;nan
14343;BME280;7255;53.596;9.960;2023-11-19T05:46:46;99986.97;;;9.21;nan
14343;BME280;7255;53.596;9.960;2023-11-19T05:49:12;99983.56;;;9.26;nan
14343;BME280;7255;53.596;9.960;2023-11-19T05:51:39;99986.25;;;9.38;nan
14343;BME280;7255;53.596;9.960;2023-11-19T05:54:08;99987.25;;;9.49;nan
14343;BME280;7255;53.596;9.960;2023-11-19T05:56:35;99986.00;;;9.51;nan
14343;BME280;7255;53.596;9.960;2023-11-19T05:59:02;99987.59;;;9.52;nan
14343;BME280;7255;53.596;9.960;2023-11-19T06:01:32;99980.97;;;9.55;nan
14343;BME280;7255;53.596;9.960;2023-11-19T06:03:58;99994.34;;;9.67;nan
14343;BME280;7255;53.596;9.960;2023-11-19T06:06:26;99990.47;;;9.74;nan
14343;BME280;7255;53.596;9.960;2023-11-19T06:08:52;99994.44;;;9.83;nan
14343;BME280;7255;53.596;9.960;2023-11-19T06:11:20;99986.47;;;9.89;nan
14343;BME280;7255;53.596;9.960;2023-11-19T06:13:46;99991.38;;;9.92;nan
14343;BME280;7255;53.596;9.960;2023-11-19T06:16:13;99974.31;;;9.98;nan
14343;BME280;7255;53.596;9.960;2023-11-19T06:18:39;99985.87;;;9.98;nan
14343;BME280;7255;53.596;9.960;2023-11-19T06:21:06;99985.72;;;10.05;nan
14343;BME280;7255;53.596;9.960;2023-11-19T06:23:33;99993.41;;;10.13;nan
14343;BME280;7255;53.596;9.960;2023-11-19T06:25:59;100005.41;;;10.23;nan
14343;BME280;7255;53.596;9.960;2023-11-19T06:28:27;99999.78;;;10.24;nan
14343;BME280;7255;53.596;9.960;2023-11-19T06:30:53;100000.50;;;10.31;nan
14343;BME280;7255;53.596;9.960;2023-11-19T06:33:19;99998.81;;;10.30;nan
14343;BME280;7255;53.596;9.960;2023-11-19T06:35:45;99998.00;;;10.30;nan
14343;BME280;7255;53.596;9.960;2023-11-19T06:38:12;99996.72;;;10.32;nan
14343;BME280;7255;53.596;9.960;2023-11-19T06:40:39;99993.81;;;10.34;nan
14343;BME280;7255;53.596;9.960;2023-11-19T06:43:06;99998.06;;;10.47;nan
14343;BME280;7255;53.596;9.960;2023-11-19T06:45:34;99997.28;;;10.46;nan
14343;BME280;7255;53.596;9.960;2023-11-19T06:48:02;100008.69;;;10.53;nan
14343;BME280;7255;53.596;9.960;2023-11-19T06:50:29;100001.00;;;10.62;nan
14343;BME280;7255;53.596;9.960;2023-11-19T06:52:56;100002.66;;;10.63;nan
14343;BME280;7255;53.596;9.960;2023-11-19T06:55:22;100003.00;;;10.67;nan
14343;BME280;7255;53.596;9.960;2023-11-19T06:57:48;100009.66;;;10.64;nan
14343;BME280;7255;53.596;9.960;2023-11-19T07:00:15;100018.44;;;10.76;nan
14343;BME280;7255;53.596;9.960;2023-11-19T07:02:44;100011.47;;;10.75;nan
14343;BME280;7255;53.596;9.960;2023-11-19T07:05:10;100014.53;;;10.84;nan
14343;BME280;7255;53.596;9.960;2023-11-19T07:07:38;100015.38;;;10.85;nan
14343;BME280;7255;53.596;9.960;2023-11-19T07:10:06;100010.34;;;10.88;nan
14343;BME280;7255;53.596;9.960;2023-11-19T07:12:34;100010.00;;;10.85;nan
14343;BME280;7255;53.596;9.960;2023-11-19T07:15:01;100006.75;;;10.83;nan
14343;BME280;7255;53.596;9.960;2023-11-19T07:17:28;100018.78;;;10.80;nan
14343;BME280;7255;53.596;9.960;2023-11-19T07:19:55;100023.53;;;10.90;nan
14343;BME280;7255;53.596;9.960;2023-11-19T07:22:24;100033.44;;;10.89;nan
14343;BME280;7255;53.596;9.960;2023-11-19T07:24:50;100021.88;;;10.89;nan
14343;BME280;7255;53.596;9.960;2023-11-19T07:27:18;100026.13;;;10.85;nan
14343;BME280;7255;53.596;9.960;2023-11-19T07:29:45;100023.53;;;10.90;nan
14343;BME280;7255;53.596;9.960;2023-11-19T07:32:11;100028.06;;;10.89;nan
14343;BME280;7255;53.596;9.960;2023-11-19T07:34:38;100015.06;;;10.81;nan
14343;BME280;7255;53.596;9.960;2023-11-19T07:37:06;100025.28;;;10.84;nan
14343;BME280;7255;53.596;9.960;2023-11-19T07:39:32;100032.31;;;10.85;nan
14343;BME280;7255;53.596;9.960;2023-11-19T07:42:00;100029.88;;;10.84;nan
14343;BME280;7255;53.596;9.960;2023-11-19T07:44:26;100025.16;;;10.91;nan
14343;BME280;7255;53.596;9.960;2023-11-19T07:46:52;100021.09;;;10.88;nan
14343;BME280;7255;53.596;9.960;2023-11-19T07:49:19;100028.91;;;10.90;nan
14343;BME280;7255;53.596;9.960;2023-11-19T07:51:45;100027.91;;;10.96;nan
14343;BME280;7255;53.596;9.960;2023-11-19T07:54:13;100039.66;;;11.07;nan
14343;BME280;7255;53.596;9.960;2023-11-19T07:56:40;100036.87;;;11.02;nan
14343;BME280;7255;53.596;9.960;2023-11-19T07:59:06;100042.09;;;11.08;nan
14343;BME280;7255;53.596;9.960;2023-11-19T08:01:32;100056.78;;;11.17;nan
14343;BME280;7255;53.596;9.960;2023-11-19T08:03:58;100055.94;;;11.17;nan
14343;BME280;7255;53.596;9.960;2023-11-19T08:06:26;100058.72;;;11.22;nan
14343;BME280;7255;53.596;9.960;2023-11-19T08:08:53;100050.75;;;11.10;nan
14343;BME280;7255;53.596;9.960;2023-11-19T08:11:20;100063.44;;;11.15;nan
14343;BME280;7255;53.596;9.960;2023-11-19T08:13:47;100056.12;;;11.10;nan
14343;BME280;7255;53.596;9.960;2023-11-19T08:16:13;100062.94;;;11.18;nan
14343;BME280;7255;53.596;9.960;2023-11-19T08:18:41;100055.44;;;11.20;nan
14343;BME280;7255;53.596;9.960;2023-11-19T08:21:07;100060.81;;;11.20;nan
14343;BME280;7255;53.596;9.960;2023-11-19T08:23:34;100061.31;;;11.17;nan
14343;BME280;7255;53.596;9.960;2023-11-19T08:26:00;100072.38;;;11.21;nan
14343;BME280;7255;53.596;9.960;2023-11-19T08:28:28;100066.53;;;11.24;nan
14343;BME280;7255;53.596;9.960;2023-11-19T08:30:54;100073.56;;;11.25;nan
14343;BME280;7255;53.596;9.960;2023-11-19T08:33:20;100057.56;;;11.18;nan
14343;BME280;7255;53.596;9.960;2023-11-19T08:35:47;100064.56;;;11.19;nan
14343;BME280;7255;53.596;9.960;2023-11-19T08:38:14;100066.22;;;11.20;nan
14343;BME280;7255;53.596;9.960;2023-11-19T08:40:40;100075.50;;;11.29;nan
14343;BME280;7255;53.596;9.960;2023-11-19T08:43:06;100071.09;;;11.40;nan
14343;BME280;7255;53.596;9.960;2023-11-19T08:45:34;100077.78;;;11.38;nan
14343;BME280;7255;53.596;9.960;2023-11-19T08:48:01;100077.13;;;11.30;nan
14343;BME280;7255;53.596;9.960;2023-11-19T08:50:27;100092.59;;;11.40;nan
14343;BME280;7255;53.596;9.960;2023-11-19T08:52:54;100079.72;;;11.42;nan
14343;BME280;7255;53.596;9.960;2023-11-19T08:55:20;100076.47;;;11.40;nan
14343;BME280;7255;53.596;9.960;2023-11-19T08:57:46;100085.09;;;11.42;nan
14343;BME280;7255;53.596;9.960;2023-11-19T09:00:13;100089.81;;;11.52;nan
14343;BME280;7255;53.596;9.960;2023-11-19T09:02:41;100088.19;;;11.51;nan
14343;BME280;7255;53.596;9.960;2023-11-19T09:05:08;100094.31;;;11.46;nan
14343;BME280;7255;53.596;9.960;2023-11-19T09:07:34;100095.50;;;11.55;nan
14343;BME280;7255;53.596;9.960;2023-11-19T09:10:01;100090.66;;;11.52;nan
14343;BME280;7255;53.596;9.960;2023-11-19T09:12:27;100100.75;;;11.45;nan
14343;BME280;7255;53.596;9.960;2023-11-19T09:14:54;100104.19;;;11.58;nan
14343;BME280;7255;53.596;9.960;2023-11-19T09:17:20;100110.38;;;11.58;nan
14343;BME280;7255;53.596;9.960;2023-11-19T09:19:47;100105.78;;;11.59;nan
14343;BME280;7255;53.596;9.960;2023-11-19T09:22:14;100106.59;;;11.59;nan
14343;BME280;7255;53.596;9.960;2023-11-19T09:24:40;100113.94;;;11.64;nan
14343;BME280;7255;53.596;9.960;2023-11-19T09:27:07;100114.28;;;11.67;nan
14343;BME280;7255;53.596;9.960;2023-11-19T09:29:33;100122.56;;;11.83;nan
14343;BME280;7255;53.596;9.960;2023-11-19T09:32:00;100123.22;;;11.73;nan
14343;BME280;7255;53.596;9.960;2023-11-19T09:34:26;100112.47;;;11.73;nan
14343;BME280;7255;53.596;9.960;2023-11-19T09:36:54;100117.38;;;11.76;nan
14343;BME280;7255;53.596;9.960;2023-11-19T09:39:20;100104.97;;;11.75;nan
14343;BME280;7255;53.596;9.960;2023-11-19T09:41:47;100120.94;;;11.82;nan
14343;BME280;7255;53.596;9.960;2023-11-19T09:44:14;100129.06;;;11.87;nan
14343;BME280;7255;53.596;9.960;2023-11-19T09:46:43;100119.13;;;11.87;nan
14343;BME280;7255;53.596;9.960;2023-11-19T09:49:11;100114.09;;;11.91;nan
14343;BME280;7255;53.596;9.960;2023-11-19T09:51:37;100104.78;;;11.99;nan
14343;BME280;7255;53.596;9.960;2023-11-19T09:54:05;100121.41;;;11.96;nan
14343;BME280;7255;53.596;9.960;2023-11-19T09:56:32;100113.25;;;11.90;nan
14343;BME280;7255;53.596;9.960;2023-11-19T09:58:59;100114.56;;;11.88;nan
14343;BME280;7255;53.596;9.960;2023-11-19T10:01:25;100119.28;;;11.98;nan
14343;BME280;7255;53.596;9.960;2023-11-19T10:03:53;100121.56;;;12.06;nan
14343;BME280;7255;53.596;9.960;2023-11-19T10:06:21;100116.00;;;12.12;nan
14343;BME280;7255;53.596;9.960;2023-11-19T10:08:48;100115.50;;;12.16;nan
14343;BME280;7255;53.596;9.960;2023-11-19T10:11:16;100105.59;;;11.99;nan
14343;BME280;7255;53.596;9.960;2023-11-19T10:13:43;100110.66;;;11.96;nan
14343;BME280;7255;53.596;9.960;2023-11-19T10:16:13;100111.31;;;11.86;nan
14343;BME280;7255;53.596;9.960;2023-11-19T10:18:43;100119.78;;;11.78;nan
14343;BME280;7255;53.596;9.960;2023-11-19T10:21:12;100114.59;;;11.71;nan
14343;BME280;7255;53.596;9.960;2023-11-19T10:23:48;100114.94;;;11.58;nan
14343;BME280;7255;53.596;9.960;2023-11-19T10:26:16;100110.84;;;11.55;nan
14343;BME280;7255;53.596;9.960;2023-11-19T10:28:43;100120.31;;;11.58;nan
14343;BME280;7255;53.596;9.960;2023-11-19T10:31:11;100115.91;;;11.51;nan
14343;BME280;7255;53.596;9.960;2023-11-19T10:33:38;100118.03;;;11.49;nan
14343;BME280;7255;53.596;9.960;2023-11-19T10:36:05;100121.16;;;11.41;nan
14343;BME280;7255;53.596;9.960;2023-11-19T10:38:32;100129.78;;;11.43;nan
14343;BME280;7255;53.596;9.960;2023-11-19T10:40:58;100127.00;;;11.38;nan
14343;BME280;7255;53.596;9.960;2023-11-19T10:43:26;100116.91;;;11.28;nan
14343;BME280;7255;53.596;9.960;2023-11-19T10:45:52;100112.66;;;11.32;nan
14343;BME280;7255;53.596;9.960;2023-11-19T10:48:19;100115.59;;;11.31;nan
14343;BME280;7255;53.596;9.960;2023-11-19T10:50:49;100110.88;;;11.38;nan
14343;BME280;7255;53.596;9.960;2023-11-19T10:53:19;100112.81;;;11.26;nan
14343;BME280;7255;53.596;9.960;2023-11-19T10:55:47;100115.59;;;11.31;nan
14343;BME280;7255;53.596;9.960;2023-11-19T10:58:16;100121.97;;;11.25;nan
14343;BME280;7255;53.596;9.960;2023-11-19T11:00:47;100121.63;;;11.38;nan
14343;BME280;7255;53.596;9.960;2023-11-19T11:03:17;100119.19;;;11.36;nan
14343;BME280;7255;53.596;9.960;2023-11-19T11:05:46;100123.88;;;11.46;nan
14343;BME280;7255;53.596;9.960;2023-11-19T11:08:13;100127.00;;;11.38;nan
14343;BME280;7255;53.596;9.960;2023-11-19T11:10:43;100131.87;;;11.58;nan
14343;BME280;7255;53.596;9.960;2023-11-19T11:13:10;100128.44;;;11.63;nan
14343;BME280;7255;53.596;9.960;2023-11-19T11:15:37;100140.03;;;11.63;nan
14343;BME280;7255;53.596;9.960;2023-11-19T11:18:07;100133.19;;;11.55;nan
14343;BME280;7255;53.596;9.960;2023-11-19T11:20:34;100128.97;;;11.60;nan
14343;BME280;7255;53.596;9.960;2023-11-19T11:23:19;100131.06;;;11.74;nan
14343;BME280;7255;53.596;9.960;2023-11-19T11:25:59;100134.16;;;11.83;nan
14343;BME280;7255;53.596;9.960;2023-11-19T11:28:35;100132.50;;;11.82;nan
14343;BME280;7255;53.596;9.960;2023-11-19T11:31:09;100124.69;;;11.81;nan
14343;BME280;7255;53.596;9.960;2023-11-19T11:33:57;100141.03;;;11.91;nan
14343;BME280;7255;53.596;9.960;2023-11-19T11:36:25;100133.84;;;11.80;nan
14343;BME280;7255;53.596;9.960;2023-11-19T11:38:52;100125.84;;;11.68;nan
14343;BME280;7255;53.596;9.960;2023-11-19T11:41:22;100130.75;;;11.54;nan
14343;BME280;7255;53.596;9.960;2023-11-19T11:43:51;100134.16;;;11.49;nan
14343;BME280;7255;53.596;9.960;2023-11-19T11:46:56;100136.94;;;11.54;nan
14343;BME280;7255;53.596;9.960;2023-11-19T11:49:27;100144.78;;;11.56;nan
14343;BME280;7255;53.596;9.960;2023-11-19T11:52:01;100131.56;;;11.54;nan
14343;BME280;7255;53.596;9.960;2023-11-19T11:54:29;100134.97;;;11.50;nan
14343;BME280;7255;53.596;9.960;2023-11-19T11:57:16;100138.06;;;11.59;nan
14343;BME280;7255;53.596;9.960;2023-11-19T11:59:46;100130.44;;;11.50;nan
14343;BME280;7255;53.596;9.960;2023-11-19T12:02:14;100126.19;;;11.54;nan
14343;BME280;7255;53.596;9.960;2023-11-19T12:04:43;100143.47;;;11.59;nan
14343;BME280;7255;53.596;9.960;2023-11-19T12:07:13;100135.47;;;11.64;nan
14343;BME280;7255;53.596;9.960;2023-11-19T12:09:41;100127.81;;;11.72;nan
14343;BME280;7255;53.596;9.960;2023-11-19T12:12:12;100131.38;;;11.78;nan
14343;BME280;7255;53.596;9.960;2023-11-19T12:15:05;100125.47;;;11.81;nan
14343;BME280;7255;53.596;9.960;2023-11-19T12:17:42;100128.13;;;11.76;nan
14343;BME280;7255;53.596;9.960;2023-11-19T12:20:12;100127.63;;;11.79;nan
14343;BME280;7255;53.596;9.960;2023-11-19T12:22:39;100125.69;;;11.74;nan
14343;BME280;7255;53.596;9.960;2023-11-19T12:25:07;100130.38;;;11.84;nan
14343;BME280;7255;53.596;9.960;2023-11-19T12:27:34;100132.34;;;11.89;nan
14343;BME280;7255;53.596;9.960;2023-11-19T12:30:00;100127.94;;;11.83;nan
14343;BME280;7255;53.596;9.960;2023-11-19T12:32:37;100124.50;;;11.87;nan
14343;BME280;7255;53.596;9.960;2023-11-19T12:35:03;100134.63;;;11.97;nan
14343;BME280;7255;53.596;9.960;2023-11-19T12:37:31;100120.62;;;11.78;nan
14343;BME280;7255;53.596;9.960;2023-11-19T12:39:58;100123.72;;;11.70;nan
14343;BME280;7255;53.596;9.960;2023-11-19T12:42:35;100124.22;;;11.67;nan
14343;BME280;7255;53.596;9.960;2023-11-19T12:45:01;100114.63;;;11.54;nan
14343;BME280;7255;53.596;9.960;2023-11-19T12:47:27;100122.41;;;11.55;nan
14343;BME280;7255;53.596;9.960;2023-11-19T12:49:57;100133.00;;;11.79;nan
14343;BME280;7255;53.596;9.960;2023-11-19T12:52:23;100135.44;;;11.81;nan
14343;BME280;7255;53.596;9.960;2023-11-19T12:54:51;100138.53;;;11.89;nan
14343;BME280;7255;53.596;9.960;2023-11-19T12:57:17;100118.16;;;11.93;nan
14343;BME280;7255;53.596;9.960;2023-11-19T12:59:54;100117.69;;;11.80;nan
14343;BME280;7255;53.596;9.960;2023-11-19T13:02:21;100121.59;;;11.89;nan
14343;BME280;7255;53.596;9.960;2023-11-19T13:04:48;100122.06;;;12.03;nan
14343;BME280;7255;53.596;9.960;2023-11-19T13:07:20;100119.06;;;12.21;nan
14343;BME280;7255;53.596;9.960;2023-11-19T13:09:47;100107.72;;;11.97;nan
14343;BME280;7255;53.596;9.960;2023-11-19T13:12:15;100116.50;;;12.09;nan
14343;BME280;7255;53.596;9.960;2023-11-19T13:14:42;100102.16;;;12.04;nan
14343;BME280;7255;53.596;9.960;2023-11-19T13:17:13;100113.59;;;11.94;nan
14343;BME280;7255;53.596;9.960;2023-11-19T13:19:39;100116.28;;;12.16;nan
14343;BME280;7255;53.596;9.960;2023-11-19T13:22:05;100115.50;;;12.16;nan
14343;BME280;7255;53.596;9.960;2023-11-19T13:24:31;100110.09;;;12.16;nan
14343;BME280;7255;53.596;9.960;2023-11-19T13:26:58;100108.66;;;12.08;nan
14343;BME280;7255;53.596;9.960;2023-11-19T13:29:25;100107.16;;;12.17;nan